createdAt,value
2022-11-25T00:01:07.777Z,12.10
2022-11-25T00:03:36.404Z,15.80
2022-11-25T00:06:13.058Z,12.17
2022-11-25T00:08:41.783Z,11.50
2022-11-25T00:11:11.255Z,11.93
2022-11-25T00:13:41.432Z,12.50
2022-11-25T00:16:11.435Z,11.93
2022-11-25T00:18:40.074Z,12.60
2022-11-25T00:21:09.524Z,12.32
2022-11-25T00:23:38.213Z,11.73
2022-11-25T00:26:10.406Z,11.40
2022-11-25T00:28:40.408Z,11.85
2022-11-25T00:31:12.235Z,12.13
2022-11-25T00:33:40.494Z,11.10
2022-11-25T00:36:15.024Z,11.00
2022-11-25T00:38:43.112Z,11.13
2022-11-25T00:41:28.953Z,11.18
2022-11-25T00:44:15.642Z,10.85
2022-11-25T00:46:44.119Z,10.13
2022-11-25T00:49:11.862Z,11.37
2022-11-25T00:51:39.643Z,9.68
2022-11-25T00:54:07.773Z,10.35
2022-11-25T00:56:35.546Z,9.90
2022-11-25T00:59:04.917Z,10.18
2022-11-25T01:01:33.038Z,9.80
2022-11-25T01:04:03.134Z,10.30
2022-11-25T01:06:31.024Z,10.13
2022-11-25T01:08:58.732Z,11.00
2022-11-25T01:11:26.666Z,10.37
2022-11-25T01:14:00.951Z,10.57
2022-11-25T01:16:31.523Z,10.47
2022-11-25T01:19:00.551Z,10.18
2022-11-25T01:21:31.229Z,9.50
2022-11-25T01:24:01.097Z,10.50
2022-11-25T01:26:30.005Z,11.37
2022-11-25T01:29:00.339Z,9.52
2022-11-25T01:31:31.758Z,10.65
2022-11-25T01:34:00.986Z,10.82
2022-11-25T01:36:29.468Z,10.67
2022-11-25T01:38:58.687Z,10.25
2022-11-25T01:41:28.713Z,9.48
2022-11-25T01:44:08.761Z,10.60
2022-11-25T01:46:49.778Z,10.70
2022-11-25T01:49:20.808Z,10.23
2022-11-25T01:51:54.462Z,10.53
2022-11-25T01:54:27.169Z,9.50
2022-11-25T01:57:00.151Z,9.20
2022-11-25T01:59:30.510Z,9.35
2022-11-25T02:02:00.294Z,8.90
2022-11-25T02:04:33.703Z,9.98
2022-11-25T02:07:10.680Z,10.38
2022-11-25T02:09:42.182Z,9.33
2022-11-25T02:12:10.940Z,8.83
2022-11-25T02:14:39.020Z,8.53
2022-11-25T02:17:08.169Z,8.40
2022-11-25T02:19:50.834Z,8.68
2022-11-25T02:22:24.973Z,8.87
2022-11-25T02:24:57.609Z,9.20
2022-11-25T02:27:26.710Z,8.63
2022-11-25T02:29:55.302Z,8.50
2022-11-25T02:32:23.903Z,9.63
2022-11-25T02:34:51.925Z,9.93
2022-11-25T02:37:23.590Z,8.70
2022-11-25T02:39:53.498Z,9.00
2022-11-25T02:42:23.877Z,8.80
2022-11-25T02:44:53.253Z,8.70
2022-11-25T02:47:21.504Z,8.32
2022-11-25T02:49:49.177Z,8.57
2022-11-25T02:52:16.829Z,9.27
2022-11-25T02:54:44.584Z,8.40
2022-11-25T02:57:12.393Z,8.40
2022-11-25T02:59:40.081Z,7.93
2022-11-25T03:02:10.307Z,7.38
2022-11-25T03:04:38.813Z,8.82
2022-11-25T03:07:06.735Z,7.78
2022-11-25T03:09:34.420Z,8.13
2022-11-25T03:12:21.155Z,8.27
2022-11-25T03:14:53.821Z,8.20
2022-11-25T03:17:23.163Z,7.70
2022-11-25T03:19:50.877Z,8.27
2022-11-25T03:22:18.470Z,8.30
2022-11-25T03:24:46.179Z,7.70
2022-11-25T03:27:13.906Z,7.80
2022-11-25T03:29:42.485Z,8.30
2022-11-25T03:32:10.425Z,8.80
2022-11-25T03:34:40.568Z,7.57
2022-11-25T03:37:09.294Z,7.47
2022-11-25T03:39:38.185Z,8.18
2022-11-25T03:42:07.825Z,8.50
2022-11-25T03:44:35.735Z,7.63
2022-11-25T03:47:03.818Z,7.67
2022-11-25T03:49:31.812Z,8.07
2022-11-25T03:52:01.758Z,7.70
2022-11-25T03:54:29.764Z,8.33
2022-11-25T03:57:18.389Z,7.38
2022-11-25T03:59:46.140Z,7.68
2022-11-25T04:02:15.373Z,7.80
2022-11-25T04:04:43.442Z,6.88
2022-11-25T04:07:12.628Z,6.75
2022-11-25T04:09:41.534Z,6.57
2022-11-25T04:12:28.171Z,6.68
2022-11-25T04:15:06.037Z,6.50
2022-11-25T04:17:34.038Z,7.35
2022-11-25T04:20:02.150Z,6.68
2022-11-25T04:22:32.242Z,6.40
2022-11-25T04:25:01.764Z,6.93
2022-11-25T04:27:30.367Z,7.45
2022-11-25T04:29:58.565Z,7.15
2022-11-25T04:32:27.449Z,6.90
2022-11-25T04:34:55.337Z,6.35
2022-11-25T04:37:23.772Z,6.00
2022-11-25T04:39:53.292Z,6.27
2022-11-25T04:42:34.511Z,6.97
2022-11-25T04:45:22.404Z,6.57
2022-11-25T04:47:51.222Z,6.35
2022-11-25T04:50:22.357Z,5.50
2022-11-25T04:53:00.296Z,5.43
2022-11-25T04:55:30.017Z,6.10
2022-11-25T04:57:59.413Z,6.15
2022-11-25T05:00:26.612Z,6.30
2022-11-25T05:02:54.756Z,6.25
2022-11-25T05:05:24.486Z,6.97
2022-11-25T05:07:52.359Z,6.20
2022-11-25T05:10:22.066Z,6.13
2022-11-25T05:12:52.771Z,6.50
2022-11-25T05:15:23.160Z,6.87
2022-11-25T05:17:50.889Z,6.75
2022-11-25T05:20:28.951Z,5.97
2022-11-25T05:22:57.091Z,5.85
2022-11-25T05:25:26.680Z,5.80
2022-11-25T05:28:15.946Z,5.93
2022-11-25T05:30:45.347Z,6.32
2022-11-25T05:33:13.648Z,5.82
2022-11-25T05:35:41.681Z,5.43
2022-11-25T05:38:10.224Z,5.70
2022-11-25T05:40:38.817Z,5.35
2022-11-25T05:43:11.648Z,6.10
2022-11-25T05:45:42.588Z,5.85
2022-11-25T05:48:12.223Z,6.47
2022-11-25T05:50:40.168Z,6.55
2022-11-25T05:53:18.219Z,6.20
2022-11-25T05:55:56.193Z,6.43
2022-11-25T05:58:41.815Z,5.90
2022-11-25T06:01:14.102Z,6.15
2022-11-25T06:03:42.566Z,6.35
2022-11-25T06:06:11.896Z,7.13
2022-11-25T06:08:40.345Z,5.85
2022-11-25T06:11:11.772Z,5.90
2022-11-25T06:13:39.684Z,6.10
2022-11-25T06:16:08.677Z,6.40
2022-11-25T06:18:38.482Z,5.90
2022-11-25T06:21:10.210Z,6.57
2022-11-25T06:23:39.140Z,6.25
2022-11-25T06:26:08.939Z,5.68
2022-11-25T06:28:37.524Z,6.35
2022-11-25T06:31:07.617Z,6.43
2022-11-25T06:33:42.549Z,6.10
2022-11-25T06:36:16.978Z,5.65
2022-11-25T06:38:45.330Z,5.72
2022-11-25T06:41:13.572Z,5.53
2022-11-25T06:43:41.525Z,6.13
2022-11-25T06:46:10.909Z,6.15
2022-11-25T06:48:39.318Z,6.20
2022-11-25T06:51:11.031Z,5.78
2022-11-25T06:53:39.609Z,5.63
2022-11-25T06:56:10.225Z,6.25
2022-11-25T06:58:38.946Z,6.45
2022-11-25T07:01:08.975Z,6.32
2022-11-25T07:03:36.997Z,6.28
2022-11-25T07:06:05.122Z,6.55
2022-11-25T07:08:34.994Z,6.20
2022-11-25T07:11:07.710Z,6.60
2022-11-25T07:13:35.601Z,6.72
2022-11-25T07:16:04.492Z,6.55
2022-11-25T07:18:33.723Z,7.18
2022-11-25T07:21:07.022Z,7.10
2022-11-25T07:23:37.089Z,6.78
2022-11-25T07:26:06.447Z,6.72
2022-11-25T07:28:34.827Z,7.85
2022-11-25T07:31:23.422Z,6.68
2022-11-25T07:33:57.293Z,8.95
2022-11-25T07:36:25.310Z,7.53
2022-11-25T07:38:54.857Z,6.50
2022-11-25T07:41:24.541Z,6.95
2022-11-25T07:43:54.085Z,6.78
2022-11-25T07:46:27.366Z,6.40
2022-11-25T07:48:57.347Z,6.25
2022-11-25T07:51:27.455Z,6.47
2022-11-25T07:53:57.803Z,6.72
2022-11-25T07:56:25.908Z,6.50
2022-11-25T07:58:53.795Z,7.00
2022-11-25T08:01:21.714Z,6.75
2022-11-25T08:03:51.201Z,6.00
2022-11-25T08:06:21.233Z,6.45
2022-11-25T08:08:49.253Z,7.35
2022-11-25T08:11:20.858Z,7.43
2022-11-25T08:13:49.258Z,6.85
2022-11-25T08:16:19.482Z,7.47
2022-11-25T08:18:47.391Z,6.43
2022-11-25T08:21:16.684Z,7.05
2022-11-25T08:23:47.474Z,6.53
2022-11-25T08:26:20.031Z,6.70
2022-11-25T08:28:48.342Z,7.45
2022-11-25T08:31:18.933Z,7.43
2022-11-25T08:33:47.820Z,7.15
2022-11-25T08:36:16.471Z,7.07
2022-11-25T08:38:45.098Z,7.30
2022-11-25T08:41:14.991Z,6.68
2022-11-25T08:43:44.511Z,7.78
2022-11-25T08:46:14.502Z,7.55
2022-11-25T08:48:43.088Z,8.57
2022-11-25T08:51:13.262Z,8.32
2022-11-25T08:53:42.733Z,8.55
2022-11-25T08:56:11.381Z,8.00
2022-11-25T08:58:39.803Z,6.93
2022-11-25T09:01:09.049Z,6.93
2022-11-25T09:03:39.662Z,7.45
2022-11-25T09:06:09.577Z,7.30
2022-11-25T09:08:38.664Z,7.32
2022-11-25T09:11:07.430Z,7.30
2022-11-25T09:13:35.404Z,7.90
2022-11-25T09:16:03.503Z,8.15
2022-11-25T09:18:33.092Z,7.85
2022-11-25T09:21:01.091Z,6.85
2022-11-25T09:23:28.766Z,7.60
2022-11-25T09:25:58.642Z,6.95
2022-11-25T09:28:27.467Z,6.95
2022-11-25T09:30:55.224Z,6.97
2022-11-25T09:33:23.488Z,7.28
2022-11-25T09:35:53.046Z,6.57
2022-11-25T09:38:20.769Z,7.15
2022-11-25T09:40:56.681Z,6.70
2022-11-25T09:43:57.277Z,6.75
2022-11-25T09:46:42.988Z,7.25
2022-11-25T09:49:22.589Z,7.15
2022-11-25T09:51:58.010Z,7.13
2022-11-25T09:54:30.793Z,7.93
2022-11-25T09:57:13.830Z,7.90
2022-11-25T09:59:50.583Z,7.35
2022-11-25T10:02:25.163Z,8.15
2022-11-25T10:04:56.272Z,9.13
2022-11-25T10:07:33.156Z,7.47
2022-11-25T10:10:03.929Z,7.93
2022-11-25T10:12:35.885Z,7.35
2022-11-25T10:15:08.041Z,6.97
2022-11-25T10:17:44.219Z,7.03
2022-11-25T10:20:20.496Z,8.02
2022-11-25T10:22:52.872Z,7.50
2022-11-25T10:25:24.773Z,7.43
2022-11-25T10:27:58.284Z,7.38
2022-11-25T10:30:28.155Z,7.85
2022-11-25T10:33:06.080Z,7.68
2022-11-25T10:35:39.126Z,8.25
2022-11-25T10:38:18.963Z,8.45
2022-11-25T10:40:49.478Z,8.25
2022-11-25T10:43:17.409Z,9.52
2022-11-25T10:45:49.847Z,7.72
2022-11-25T10:48:33.076Z,8.00
2022-11-25T10:51:15.566Z,7.75
2022-11-25T10:54:16.337Z,7.63
2022-11-25T10:56:47.048Z,8.38
2022-11-25T10:59:22.311Z,8.48
2022-11-25T11:01:51.131Z,7.78
2022-11-25T11:04:19.470Z,7.80
2022-11-25T11:06:49.812Z,7.43
2022-11-25T11:09:35.181Z,7.70
2022-11-25T11:12:17.248Z,7.82
2022-11-25T11:14:45.386Z,8.05
2022-11-25T11:17:36.333Z,7.68
2022-11-25T11:20:22.319Z,7.20
2022-11-25T11:22:55.996Z,7.43
2022-11-25T11:25:30.307Z,7.82
2022-11-25T11:27:58.368Z,7.88
2022-11-25T11:30:28.431Z,7.38
2022-11-25T11:33:00.159Z,8.10
2022-11-25T11:35:41.816Z,7.38
2022-11-25T11:38:28.781Z,7.78
2022-11-25T11:41:06.591Z,8.10
2022-11-25T11:44:07.616Z,7.60
2022-11-25T11:46:51.605Z,7.70
2022-11-25T11:49:41.979Z,7.30
2022-11-25T11:52:17.770Z,6.72
2022-11-25T11:54:47.736Z,7.35
2022-11-25T11:57:29.413Z,7.63
2022-11-25T11:59:59.595Z,6.88
2022-11-25T12:02:36.501Z,7.50
2022-11-25T12:05:15.158Z,7.18
2022-11-25T12:07:49.888Z,7.22
2022-11-25T12:10:23.660Z,6.75
2022-11-25T12:12:56.627Z,7.38
2022-11-25T12:15:35.062Z,7.18
2022-11-25T12:18:05.954Z,7.60
2022-11-25T12:20:39.749Z,6.82
2022-11-25T12:23:14.267Z,7.30
2022-11-25T12:25:43.907Z,6.85
2022-11-25T12:28:18.178Z,6.70
2022-11-25T12:31:03.360Z,6.53
2022-11-25T12:33:44.861Z,7.00
2022-11-25T12:36:18.903Z,6.97
2022-11-25T12:38:48.638Z,6.95
2022-11-25T12:41:26.242Z,7.35
2022-11-25T12:44:01.816Z,7.30
2022-11-25T12:46:37.721Z,6.90
2022-11-25T12:49:09.447Z,6.30
2022-11-25T12:52:09.481Z,6.30
2022-11-25T12:54:54.209Z,6.60
2022-11-25T12:58:02.034Z,6.70
2022-11-25T13:00:48.142Z,6.78
2022-11-25T13:03:40.852Z,6.25
2022-11-25T13:06:31.094Z,6.60
2022-11-25T13:09:04.801Z,6.45
2022-11-25T13:11:58.451Z,6.40
2022-11-25T13:14:33.022Z,6.90
2022-11-25T13:17:03.440Z,7.50
2022-11-25T13:19:36.828Z,6.68
2022-11-25T13:22:06.400Z,6.93
2022-11-25T13:24:39.297Z,6.78
2022-11-25T13:27:07.504Z,7.28
2022-11-25T13:30:03.296Z,6.95
2022-11-25T13:32:38.999Z,7.65
2022-11-25T13:35:40.167Z,6.95
2022-11-25T13:38:23.494Z,6.75
2022-11-25T13:40:58.212Z,6.40
2022-11-25T13:43:26.080Z,6.57
2022-11-25T13:45:54.335Z,6.35
2022-11-25T13:48:27.101Z,7.03
2022-11-25T13:51:16.304Z,6.47
2022-11-25T13:53:53.254Z,6.50
2022-11-25T13:56:28.640Z,6.68
2022-11-25T13:59:35.219Z,7.00
2022-11-25T14:02:44.760Z,7.40
2022-11-25T14:05:43.863Z,7.50
2022-11-25T14:08:21.216Z,7.13
2022-11-25T14:11:01.251Z,6.82
2022-11-25T14:13:52.054Z,6.90
2022-11-25T14:16:41.191Z,7.47
2022-11-25T14:22:40.170Z,6.88
2022-11-25T14:25:20.159Z,6.20
2022-11-25T14:27:51.415Z,5.85
2022-11-25T14:30:20.718Z,6.18
2022-11-25T14:32:57.827Z,6.65
2022-11-25T14:35:31.415Z,7.05
2022-11-25T14:38:05.555Z,6.63
2022-11-25T14:40:39.473Z,6.10
2022-11-25T14:43:16.105Z,6.20
2022-11-25T14:45:44.348Z,5.78
2022-11-25T14:48:16.366Z,5.65
2022-11-25T14:50:55.988Z,6.00
2022-11-25T14:53:26.816Z,5.95
2022-11-25T14:55:54.942Z,5.93
2022-11-25T14:58:23.087Z,6.20
2022-11-25T15:00:52.913Z,5.47
2022-11-25T15:03:21.603Z,5.65
2022-11-25T15:05:57.004Z,6.25
2022-11-25T15:08:26.791Z,5.88
2022-11-25T15:10:56.538Z,5.90
2022-11-25T15:13:34.710Z,6.63
2022-11-25T15:16:09.303Z,5.80
2022-11-25T15:18:39.238Z,5.97
2022-11-25T15:21:07.603Z,5.68
2022-11-25T15:23:38.975Z,5.10
2022-11-25T15:26:19.021Z,4.68
2022-11-25T15:28:47.299Z,4.70
2022-11-25T15:31:21.036Z,4.80
2022-11-25T15:33:54.883Z,5.30
2022-11-25T15:36:23.906Z,6.63
2022-11-25T15:38:53.626Z,9.65
2022-11-25T15:41:33.255Z,8.15
2022-11-25T15:44:02.874Z,7.10
2022-11-25T15:46:34.310Z,6.93
2022-11-25T15:49:05.779Z,6.25
2022-11-25T15:51:39.208Z,5.20
2022-11-25T15:54:18.445Z,4.97
2022-11-25T15:56:50.128Z,6.63
2022-11-25T15:59:41.128Z,6.30
2022-11-25T16:02:35.591Z,7.53
2022-11-25T16:05:24.293Z,7.05
2022-11-25T16:08:02.919Z,7.85
2022-11-25T16:10:34.639Z,6.85
2022-11-25T16:13:34.372Z,6.22
2022-11-25T16:16:22.575Z,6.93
2022-11-25T16:18:59.080Z,5.85
2022-11-25T16:21:30.530Z,6.68
2022-11-25T16:24:10.427Z,6.90
2022-11-25T16:26:49.509Z,6.30
2022-11-25T16:29:20.082Z,5.72
2022-11-25T16:31:48.199Z,5.80
2022-11-25T16:34:18.218Z,5.18
2022-11-25T16:36:45.990Z,5.13
2022-11-25T16:39:14.217Z,4.78
2022-11-25T16:41:46.148Z,4.10
2022-11-25T16:44:21.233Z,3.83
2022-11-25T16:46:49.728Z,4.63
2022-11-25T16:49:19.301Z,5.47
2022-11-25T16:51:47.137Z,6.65
2022-11-25T16:54:14.964Z,8.93
2022-11-25T16:56:45.344Z,8.25
2022-11-25T16:59:17.933Z,8.52
2022-11-25T17:01:46.593Z,9.02
2022-11-25T17:04:15.546Z,13.10
2022-11-25T17:06:50.500Z,13.15
2022-11-25T17:09:32.933Z,13.35
2022-11-25T17:12:02.441Z,15.38
2022-11-25T17:14:32.923Z,14.18
2022-11-25T17:17:01.843Z,14.88
2022-11-25T17:19:30.356Z,12.23
2022-11-25T17:21:58.679Z,12.15
2022-11-25T17:24:27.123Z,13.20
2022-11-25T17:26:57.920Z,14.27
2022-11-25T17:29:32.877Z,11.32
2022-11-25T17:32:01.139Z,8.90
2022-11-25T17:34:28.933Z,6.03
2022-11-25T17:36:57.717Z,5.32
2022-11-25T17:39:25.724Z,5.47
2022-11-25T17:41:53.462Z,5.25
2022-11-25T17:44:25.895Z,6.00
2022-11-25T17:46:58.213Z,6.57
2022-11-25T17:49:26.883Z,7.78
2022-11-25T17:51:54.717Z,6.78
2022-11-25T17:54:22.947Z,6.22
2022-11-25T17:56:52.567Z,6.28
2022-11-25T17:59:25.497Z,6.97
2022-11-25T18:01:55.991Z,11.60
2022-11-25T18:04:25.222Z,9.95
2022-11-25T18:06:53.557Z,9.30
2022-11-25T18:09:21.451Z,9.88
2022-11-25T18:11:53.026Z,12.43
2022-11-25T18:14:26.254Z,12.85
2022-11-25T18:16:56.399Z,13.52
2022-11-25T18:19:24.512Z,13.52
2022-11-25T18:21:52.757Z,16.98
2022-11-25T18:24:20.449Z,15.88
2022-11-25T18:26:50.898Z,15.70
2022-11-25T18:29:22.929Z,14.77
2022-11-25T18:31:51.367Z,14.30
2022-11-25T18:34:20.728Z,10.18
2022-11-25T18:36:48.701Z,8.98
2022-11-25T18:39:16.333Z,9.75
2022-11-25T18:41:45.561Z,9.43
2022-11-25T18:44:25.852Z,8.43
2022-11-25T18:46:54.940Z,11.02
2022-11-25T18:49:24.780Z,11.60
2022-11-25T18:51:52.523Z,12.38
2022-11-25T18:54:20.161Z,11.75
2022-11-25T18:56:52.029Z,9.50
2022-11-25T18:59:28.980Z,7.28
2022-11-25T19:01:56.838Z,8.18
2022-11-25T19:04:26.024Z,6.20
2022-11-25T19:06:53.899Z,5.63
2022-11-25T19:09:21.547Z,6.60
2022-11-25T19:11:53.437Z,5.07
2022-11-25T19:14:29.051Z,5.10
2022-11-25T19:16:59.874Z,4.30
2022-11-25T19:19:29.586Z,3.85
2022-11-25T19:22:02.095Z,4.72
2022-11-25T19:24:30.944Z,4.18
2022-11-25T19:26:58.967Z,3.40
2022-11-25T19:29:33.840Z,3.40
2022-11-25T19:32:05.183Z,2.80
2022-11-25T19:34:38.660Z,3.47
2022-11-25T19:37:06.661Z,2.97
2022-11-25T19:39:37.501Z,3.78
2022-11-25T19:42:05.397Z,3.55
2022-11-25T19:44:33.341Z,2.72
2022-11-25T19:47:15.126Z,3.17
2022-11-25T19:49:46.146Z,3.20
2022-11-25T19:52:17.068Z,3.38
2022-11-25T19:54:45.156Z,2.90
2022-11-25T19:57:17.557Z,3.80
2022-11-25T19:59:46.558Z,3.05
2022-11-25T20:02:16.866Z,3.03
2022-11-25T20:04:48.144Z,3.10
2022-11-25T20:07:19.277Z,3.40
2022-11-25T20:09:48.390Z,4.38
2022-11-25T20:12:22.113Z,4.93
2022-11-25T20:14:50.634Z,5.20
2022-11-25T20:17:25.489Z,4.18
2022-11-25T20:19:57.154Z,3.92
2022-11-25T20:22:29.359Z,4.90
2022-11-25T20:24:59.761Z,4.45
2022-11-25T20:27:28.916Z,4.25
2022-11-25T20:29:57.433Z,4.05
2022-11-25T20:32:29.474Z,3.58
2022-11-25T20:35:01.175Z,3.88
2022-11-25T20:37:40.465Z,3.58
2022-11-25T20:40:17.601Z,3.50
2022-11-25T20:42:46.601Z,3.22
2022-11-25T20:45:16.468Z,3.67
2022-11-25T20:47:44.804Z,3.38
2022-11-25T20:50:17.170Z,3.20
2022-11-25T20:52:46.877Z,2.83
2022-11-25T20:55:20.731Z,3.53
2022-11-25T20:57:50.622Z,3.17
2022-11-25T21:00:24.147Z,3.30
2022-11-25T21:02:52.445Z,2.95
2022-11-25T21:05:22.518Z,3.10
2022-11-25T21:07:51.810Z,2.92
2022-11-25T21:10:26.526Z,3.17
2022-11-25T21:12:55.002Z,3.78
2022-11-25T21:15:25.425Z,3.35
2022-11-25T21:17:53.407Z,2.95
2022-11-25T21:20:22.580Z,2.70
2022-11-25T21:22:55.013Z,3.13
2022-11-25T21:25:24.033Z,2.78
2022-11-25T21:27:53.212Z,3.08
2022-11-25T21:30:24.027Z,3.58
2022-11-25T21:32:54.563Z,3.25
2022-11-25T21:35:26.012Z,7.95
2022-11-25T21:37:54.046Z,5.18
2022-11-25T21:40:33.027Z,7.15
2022-11-25T21:43:01.442Z,7.53
2022-11-25T21:45:29.290Z,7.43
2022-11-25T21:47:57.028Z,7.47
2022-11-25T21:50:29.497Z,7.72
2022-11-25T21:52:57.652Z,8.95
2022-11-25T21:55:26.274Z,6.90
2022-11-25T21:57:54.210Z,7.20
2022-11-25T22:00:24.711Z,8.25
2022-11-25T22:02:53.201Z,6.93
2022-11-25T22:05:25.374Z,6.32
2022-11-25T22:07:55.034Z,4.20
2022-11-25T22:10:23.682Z,5.00
2022-11-25T22:12:51.765Z,4.20
2022-11-25T22:15:22.107Z,4.63
2022-11-25T22:17:54.250Z,4.50
2022-11-25T22:20:28.880Z,5.00
2022-11-25T22:22:58.025Z,4.80
2022-11-25T22:25:27.730Z,4.35
2022-11-25T22:27:55.506Z,4.20
2022-11-25T22:30:24.837Z,4.43
2022-11-25T22:33:00.844Z,4.72
2022-11-25T22:35:29.234Z,5.15
2022-11-25T22:37:58.432Z,3.05
2022-11-25T22:40:26.413Z,3.58
2022-11-25T22:42:57.023Z,3.65
2022-11-25T22:45:30.449Z,4.28
2022-11-25T22:47:59.366Z,3.42
2022-11-25T22:50:29.709Z,3.58
2022-11-25T22:53:00.369Z,4.00
2022-11-25T22:55:29.887Z,3.47
2022-11-25T22:58:00.167Z,3.67
2022-11-25T23:00:29.494Z,4.03
2022-11-25T23:02:59.223Z,4.07
2022-11-25T23:05:32.497Z,3.90
2022-11-25T23:08:03.217Z,5.10
2022-11-25T23:10:32.892Z,4.88
2022-11-25T23:13:00.811Z,4.65
2022-11-25T23:15:28.640Z,4.82
2022-11-25T23:17:58.442Z,4.70
2022-11-25T23:20:30.268Z,3.85
2022-11-25T23:22:59.127Z,4.25
2022-11-25T23:25:28.242Z,3.35
2022-11-25T23:27:55.975Z,4.13
2022-11-25T23:30:24.619Z,3.78
2022-11-25T23:32:54.447Z,4.90
2022-11-25T23:35:28.423Z,5.85
2022-11-25T23:37:57.748Z,7.70
2022-11-25T23:40:28.605Z,7.80
2022-11-25T23:42:57.422Z,7.50
2022-11-25T23:45:27.516Z,6.43
2022-11-25T23:47:57.209Z,12.50
2022-11-25T23:50:29.170Z,14.05
2022-11-25T23:53:00.896Z,24.25
2022-11-25T23:55:32.138Z,19.05
2022-11-25T23:58:01.643Z,10.38
